sensor_id;sensor_type;location;lat;lon;timestamp;P1;durP1;ratioP1;P2;durP2;ratioP2
43813;SDS011;29669;55.706;37.656;2023-08-08T06:07:57;16.02;;;5.15;;
43813;SDS011;29669;55.706;37.656;2023-08-08T06:10:32;8.48;;;5.30;;
43813;SDS011;29669;55.706;37.656;2023-08-08T06:13:06;11.52;;;5.72;;
43813;SDS011;29669;55.706;37.656;2023-08-08T06:15:38;12.68;;;5.43;;
43813;SDS011;29669;55.706;37.656;2023-08-08T06:18:08;8.88;;;6.38;;
43813;SDS011;29669;55.706;37.656;2023-08-08T06:20:39;10.05;;;6.28;;
43813;SDS011;29669;55.706;37.656;2023-08-08T06:23:11;9.77;;;5.80;;
43813;SDS011;29669;55.706;37.656;2023-08-08T06:25:39;10.82;;;5.65;;
43813;SDS011;29669;55.706;37.656;2023-08-08T06:28:07;13.20;;;6.30;;
43813;SDS011;29669;55.706;37.656;2023-08-08T06:30:35;12.98;;;6.30;;
43813;SDS011;29669;55.706;37.656;2023-08-08T06:33:02;9.70;;;6.05;;
43813;SDS011;29669;55.706;37.656;2023-08-08T06:35:30;13.77;;;6.05;;
43813;SDS011;29669;55.706;37.656;2023-08-08T06:37:58;7.18;;;4.88;;
43813;SDS011;29669;55.706;37.656;2023-08-08T06:40:25;11.85;;;6.13;;
43813;SDS011;29669;55.706;37.656;2023-08-08T06:43:22;8.88;;;5.10;;
43813;SDS011;29669;55.706;37.656;2023-08-08T06:45:50;10.73;;;5.32;;
43813;SDS011;29669;55.706;37.656;2023-08-08T06:48:18;13.73;;;7.25;;
43813;SDS011;29669;55.706;37.656;2023-08-08T06:50:45;10.52;;;4.93;;
43813;SDS011;29669;55.706;37.656;2023-08-08T06:53:13;10.40;;;5.68;;
43813;SDS011;29669;55.706;37.656;2023-08-08T06:55:41;9.32;;;5.45;;
43813;SDS011;29669;55.706;37.656;2023-08-08T06:58:09;11.95;;;5.53;;
43813;SDS011;29669;55.706;37.656;2023-08-08T07:00:36;9.00;;;6.05;;
43813;SDS011;29669;55.706;37.656;2023-08-08T07:03:04;13.23;;;6.47;;
43813;SDS011;29669;55.706;37.656;2023-08-08T07:05:32;9.70;;;4.45;;
43813;SDS011;29669;55.706;37.656;2023-08-08T07:08:00;5.72;;;4.38;;
43813;SDS011;29669;55.706;37.656;2023-08-08T07:10:28;10.10;;;4.65;;
43813;SDS011;29669;55.706;37.656;2023-08-08T07:12:55;7.80;;;5.00;;
43813;SDS011;29669;55.706;37.656;2023-08-08T07:15:23;14.63;;;5.22;;
43813;SDS011;29669;55.706;37.656;2023-08-08T07:17:51;8.32;;;5.13;;
43813;SDS011;29669;55.706;37.656;2023-08-08T07:20:19;5.60;;;4.70;;
43813;SDS011;29669;55.706;37.656;2023-08-08T07:22:47;7.72;;;5.13;;
43813;SDS011;29669;55.706;37.656;2023-08-08T07:25:14;13.15;;;5.07;;
43813;SDS011;29669;55.706;37.656;2023-08-08T07:27:42;12.80;;;5.43;;
43813;SDS011;29669;55.706;37.656;2023-08-08T07:30:10;8.82;;;5.50;;
43813;SDS011;29669;55.706;37.656;2023-08-08T07:32:39;10.95;;;5.90;;
43813;SDS011;29669;55.706;37.656;2023-08-08T07:35:07;9.18;;;6.25;;
43813;SDS011;29669;55.706;37.656;2023-08-08T07:37:35;10.93;;;5.90;;
43813;SDS011;29669;55.706;37.656;2023-08-08T07:40:12;11.40;;;5.30;;
43813;SDS011;29669;55.706;37.656;2023-08-08T07:42:41;7.25;;;5.15;;
43813;SDS011;29669;55.706;37.656;2023-08-08T07:45:08;12.82;;;5.47;;
43813;SDS011;29669;55.706;37.656;2023-08-08T07:47:36;11.35;;;6.35;;
43813;SDS011;29669;55.706;37.656;2023-08-08T07:50:04;12.45;;;5.65;;
43813;SDS011;29669;55.706;37.656;2023-08-08T07:52:35;10.43;;;5.55;;
43813;SDS011;29669;55.706;37.656;2023-08-08T07:55:04;12.45;;;8.38;;
43813;SDS011;29669;55.706;37.656;2023-08-08T07:57:32;13.93;;;6.85;;
43813;SDS011;29669;55.706;37.656;2023-08-08T08:00:02;13.93;;;6.07;;
43813;SDS011;29669;55.706;37.656;2023-08-08T08:02:41;14.63;;;6.40;;
43813;SDS011;29669;55.706;37.656;2023-08-08T08:05:10;10.95;;;5.35;;
43813;SDS011;29669;55.706;37.656;2023-08-08T08:07:40;7.93;;;5.75;;
43813;SDS011;29669;55.706;37.656;2023-08-08T08:10:09;13.70;;;6.45;;
43813;SDS011;29669;55.706;37.656;2023-08-08T08:12:40;7.13;;;5.65;;
43813;SDS011;29669;55.706;37.656;2023-08-08T08:15:09;10.77;;;6.07;;
43813;SDS011;29669;55.706;37.656;2023-08-08T08:17:37;8.90;;;6.15;;
43813;SDS011;29669;55.706;37.656;2023-08-08T08:20:05;10.77;;;6.20;;
43813;SDS011;29669;55.706;37.656;2023-08-08T08:22:38;15.10;;;6.90;;
43813;SDS011;29669;55.706;37.656;2023-08-08T08:25:06;16.40;;;7.03;;
43813;SDS011;29669;55.706;37.656;2023-08-08T08:27:36;7.35;;;5.82;;
43813;SDS011;29669;55.706;37.656;2023-08-08T08:30:05;12.27;;;6.70;;
43813;SDS011;29669;55.706;37.656;2023-08-08T08:32:34;15.48;;;7.38;;
43813;SDS011;29669;55.706;37.656;2023-08-08T08:35:02;16.73;;;7.43;;
43813;SDS011;29669;55.706;37.656;2023-08-08T08:37:33;14.75;;;7.70;;
43813;SDS011;29669;55.706;37.656;2023-08-08T08:40:02;11.00;;;5.88;;
43813;SDS011;29669;55.706;37.656;2023-08-08T08:42:32;12.73;;;6.47;;
43813;SDS011;29669;55.706;37.656;2023-08-08T08:45:03;8.32;;;6.72;;
43813;SDS011;29669;55.706;37.656;2023-08-08T08:47:33;9.43;;;6.03;;
43813;SDS011;29669;55.706;37.656;2023-08-08T08:50:04;11.05;;;6.32;;
43813;SDS011;29669;55.706;37.656;2023-08-08T08:52:32;10.73;;;6.47;;
43813;SDS011;29669;55.706;37.656;2023-08-08T08:55:00;11.55;;;7.00;;
43813;SDS011;29669;55.706;37.656;2023-08-08T08:57:31;11.60;;;6.53;;
43813;SDS011;29669;55.706;37.656;2023-08-08T09:00:00;13.68;;;6.82;;
43813;SDS011;29669;55.706;37.656;2023-08-08T09:02:33;10.98;;;6.82;;
43813;SDS011;29669;55.706;37.656;2023-08-08T09:05:01;9.52;;;6.60;;
43813;SDS011;29669;55.706;37.656;2023-08-08T09:07:31;15.77;;;6.90;;
43813;SDS011;29669;55.706;37.656;2023-08-08T09:10:00;9.00;;;7.55;;
43813;SDS011;29669;55.706;37.656;2023-08-08T09:12:30;17.25;;;7.80;;
43813;SDS011;29669;55.706;37.656;2023-08-08T09:14:58;8.63;;;7.00;;
43813;SDS011;29669;55.706;37.656;2023-08-08T09:17:27;13.68;;;6.90;;
43813;SDS011;29669;55.706;37.656;2023-08-08T09:20:14;10.05;;;6.65;;
43813;SDS011;29669;55.706;37.656;2023-08-08T09:22:43;14.43;;;7.00;;
43813;SDS011;29669;55.706;37.656;2023-08-08T09:25:12;21.35;;;8.25;;
43813;SDS011;29669;55.706;37.656;2023-08-08T09:27:40;9.93;;;6.70;;
43813;SDS011;29669;55.706;37.656;2023-08-08T09:30:10;10.50;;;7.25;;
43813;SDS011;29669;55.706;37.656;2023-08-08T09:32:39;13.70;;;7.15;;
43813;SDS011;29669;55.706;37.656;2023-08-08T09:35:07;14.95;;;7.85;;
43813;SDS011;29669;55.706;37.656;2023-08-08T09:37:37;12.15;;;7.30;;
43813;SDS011;29669;55.706;37.656;2023-08-08T09:40:06;12.40;;;7.93;;
43813;SDS011;29669;55.706;37.656;2023-08-08T09:42:35;18.50;;;8.93;;
43813;SDS011;29669;55.706;37.656;2023-08-08T09:45:03;13.00;;;7.90;;
43813;SDS011;29669;55.706;37.656;2023-08-08T09:47:32;10.65;;;7.28;;
43813;SDS011;29669;55.706;37.656;2023-08-08T09:50:01;14.02;;;7.80;;
43813;SDS011;29669;55.706;37.656;2023-08-08T09:52:33;14.23;;;7.82;;
43813;SDS011;29669;55.706;37.656;2023-08-08T09:55:02;10.20;;;8.43;;
43813;SDS011;29669;55.706;37.656;2023-08-08T09:57:32;17.45;;;9.00;;
43813;SDS011;29669;55.706;37.656;2023-08-08T10:00:00;11.13;;;8.05;;
43813;SDS011;29669;55.706;37.656;2023-08-08T10:02:34;15.65;;;7.75;;
43813;SDS011;29669;55.706;37.656;2023-08-08T10:05:05;9.95;;;6.47;;
43813;SDS011;29669;55.706;37.656;2023-08-08T10:07:33;14.38;;;6.13;;
43813;SDS011;29669;55.706;37.656;2023-08-08T10:10:01;13.55;;;7.38;;
43813;SDS011;29669;55.706;37.656;2023-08-08T10:12:31;14.57;;;7.55;;
43813;SDS011;29669;55.706;37.656;2023-08-08T10:14:58;7.95;;;6.10;;
43813;SDS011;29669;55.706;37.656;2023-08-08T10:17:27;12.80;;;5.90;;
43813;SDS011;29669;55.706;37.656;2023-08-08T10:20:01;10.25;;;6.50;;
43813;SDS011;29669;55.706;37.656;2023-08-08T10:22:42;13.27;;;6.07;;
43813;SDS011;29669;55.706;37.656;2023-08-08T10:25:19;8.95;;;5.78;;
43813;SDS011;29669;55.706;37.656;2023-08-08T10:28:00;11.30;;;6.20;;
43813;SDS011;29669;55.706;37.656;2023-08-08T10:30:56;13.07;;;6.30;;
43813;SDS011;29669;55.706;37.656;2023-08-08T10:33:25;12.90;;;6.35;;
43813;SDS011;29669;55.706;37.656;2023-08-08T10:38:37;10.35;;;6.57;;
43813;SDS011;29669;55.706;37.656;2023-08-08T10:41:11;16.17;;;7.75;;
43813;SDS011;29669;55.706;37.656;2023-08-08T10:43:47;20.73;;;7.65;;
43813;SDS011;29669;55.706;37.656;2023-08-08T10:46:26;16.08;;;7.03;;
43813;SDS011;29669;55.706;37.656;2023-08-08T10:48:57;16.70;;;7.40;;
43813;SDS011;29669;55.706;37.656;2023-08-08T10:51:37;14.75;;;7.57;;
43813;SDS011;29669;55.706;37.656;2023-08-08T10:54:15;16.42;;;7.05;;
43813;SDS011;29669;55.706;37.656;2023-08-08T10:56:53;10.43;;;7.47;;
43813;SDS011;29669;55.706;37.656;2023-08-08T10:59:23;10.98;;;7.43;;
43813;SDS011;29669;55.706;37.656;2023-08-08T11:01:53;18.75;;;7.70;;
43813;SDS011;29669;55.706;37.656;2023-08-08T11:04:24;10.48;;;6.90;;
43813;SDS011;29669;55.706;37.656;2023-08-08T11:06:56;9.90;;;6.78;;
43813;SDS011;29669;55.706;37.656;2023-08-08T11:09:23;17.90;;;8.32;;
43813;SDS011;29669;55.706;37.656;2023-08-08T11:11:51;12.15;;;6.65;;
43813;SDS011;29669;55.706;37.656;2023-08-08T11:14:20;12.68;;;7.07;;
43813;SDS011;29669;55.706;37.656;2023-08-08T11:16:49;15.70;;;7.70;;
43813;SDS011;29669;55.706;37.656;2023-08-08T11:19:19;17.00;;;7.75;;
43813;SDS011;29669;55.706;37.656;2023-08-08T11:21:47;13.35;;;7.40;;
43813;SDS011;29669;55.706;37.656;2023-08-08T11:24:15;11.02;;;7.50;;
43813;SDS011;29669;55.706;37.656;2023-08-08T11:26:44;11.52;;;8.15;;
43813;SDS011;29669;55.706;37.656;2023-08-08T11:29:14;12.75;;;7.93;;
43813;SDS011;29669;55.706;37.656;2023-08-08T11:31:42;14.73;;;7.65;;
43813;SDS011;29669;55.706;37.656;2023-08-08T11:34:10;8.88;;;7.15;;
43813;SDS011;29669;55.706;37.656;2023-08-08T11:36:39;14.50;;;8.02;;
43813;SDS011;29669;55.706;37.656;2023-08-08T11:39:07;13.63;;;8.23;;
43813;SDS011;29669;55.706;37.656;2023-08-08T11:41:36;17.58;;;8.35;;
43813;SDS011;29669;55.706;37.656;2023-08-08T11:44:05;13.73;;;8.60;;
43813;SDS011;29669;55.706;37.656;2023-08-08T11:46:44;16.30;;;9.50;;
43813;SDS011;29669;55.706;37.656;2023-08-08T11:49:14;15.05;;;9.38;;
43813;SDS011;29669;55.706;37.656;2023-08-08T11:51:44;13.82;;;8.93;;
43813;SDS011;29669;55.706;37.656;2023-08-08T11:54:13;15.35;;;8.90;;
43813;SDS011;29669;55.706;37.656;2023-08-08T11:56:43;15.25;;;9.57;;
43813;SDS011;29669;55.706;37.656;2023-08-08T11:59:10;17.20;;;9.55;;
43813;SDS011;29669;55.706;37.656;2023-08-08T12:01:41;14.63;;;10.32;;
43813;SDS011;29669;55.706;37.656;2023-08-08T12:04:09;14.50;;;9.70;;
43813;SDS011;29669;55.706;37.656;2023-08-08T12:06:37;11.38;;;8.55;;
43813;SDS011;29669;55.706;37.656;2023-08-08T12:09:14;17.42;;;10.60;;
43813;SDS011;29669;55.706;37.656;2023-08-08T12:11:42;14.32;;;9.70;;
43813;SDS011;29669;55.706;37.656;2023-08-08T12:14:12;12.77;;;8.48;;
43813;SDS011;29669;55.706;37.656;2023-08-08T12:16:42;14.73;;;8.40;;
43813;SDS011;29669;55.706;37.656;2023-08-08T12:19:11;11.95;;;8.43;;
43813;SDS011;29669;55.706;37.656;2023-08-08T12:21:40;11.05;;;8.35;;
43813;SDS011;29669;55.706;37.656;2023-08-08T12:24:07;20.58;;;8.20;;
43813;SDS011;29669;55.706;37.656;2023-08-08T12:26:35;12.80;;;8.25;;
43813;SDS011;29669;55.706;37.656;2023-08-08T12:29:02;13.75;;;7.53;;
43813;SDS011;29669;55.706;37.656;2023-08-08T12:31:30;15.45;;;7.45;;
43813;SDS011;29669;55.706;37.656;2023-08-08T12:33:58;12.23;;;7.00;;
43813;SDS011;29669;55.706;37.656;2023-08-08T12:36:26;12.68;;;7.10;;
43813;SDS011;29669;55.706;37.656;2023-08-08T12:38:53;21.63;;;7.47;;
43813;SDS011;29669;55.706;37.656;2023-08-08T12:41:22;12.88;;;7.32;;
43813;SDS011;29669;55.706;37.656;2023-08-08T12:43:52;11.55;;;7.00;;
43813;SDS011;29669;55.706;37.656;2023-08-08T12:46:20;9.50;;;6.68;;
43813;SDS011;29669;55.706;37.656;2023-08-08T12:48:47;9.15;;;7.10;;
43813;SDS011;29669;55.706;37.656;2023-08-08T12:51:15;13.95;;;7.38;;
43813;SDS011;29669;55.706;37.656;2023-08-08T12:53:46;13.07;;;6.88;;
43813;SDS011;29669;55.706;37.656;2023-08-08T12:56:13;10.80;;;7.43;;
43813;SDS011;29669;55.706;37.656;2023-08-08T12:58:41;14.05;;;8.43;;
43813;SDS011;29669;55.706;37.656;2023-08-08T13:01:09;20.10;;;10.95;;
43813;SDS011;29669;55.706;37.656;2023-08-08T13:03:36;18.85;;;9.75;;
43813;SDS011;29669;55.706;37.656;2023-08-08T13:06:05;11.88;;;8.15;;
43813;SDS011;29669;55.706;37.656;2023-08-08T13:08:32;20.85;;;9.43;;
43813;SDS011;29669;55.706;37.656;2023-08-08T13:11:00;16.00;;;8.35;;
43813;SDS011;29669;55.706;37.656;2023-08-08T13:13:28;13.32;;;9.00;;
43813;SDS011;29669;55.706;37.656;2023-08-08T13:15:55;13.80;;;8.38;;
43813;SDS011;29669;55.706;37.656;2023-08-08T13:18:23;11.65;;;7.90;;
43813;SDS011;29669;55.706;37.656;2023-08-08T13:20:50;14.45;;;8.38;;
43813;SDS011;29669;55.706;37.656;2023-08-08T13:23:19;13.80;;;8.18;;
43813;SDS011;29669;55.706;37.656;2023-08-08T13:25:46;8.82;;;7.55;;
43813;SDS011;29669;55.706;37.656;2023-08-08T13:28:15;12.38;;;8.52;;
43813;SDS011;29669;55.706;37.656;2023-08-08T13:30:43;14.60;;;7.93;;
43813;SDS011;29669;55.706;37.656;2023-08-08T13:33:10;12.00;;;8.05;;
43813;SDS011;29669;55.706;37.656;2023-08-08T13:35:38;13.15;;;9.38;;
43813;SDS011;29669;55.706;37.656;2023-08-08T13:38:05;16.13;;;9.38;;
43813;SDS011;29669;55.706;37.656;2023-08-08T13:40:34;12.25;;;7.18;;
43813;SDS011;29669;55.706;37.656;2023-08-08T13:43:02;10.05;;;8.48;;
43813;SDS011;29669;55.706;37.656;2023-08-08T13:45:29;18.30;;;8.68;;
43813;SDS011;29669;55.706;37.656;2023-08-08T13:47:57;16.33;;;8.50;;
43813;SDS011;29669;55.706;37.656;2023-08-08T13:50:25;13.00;;;7.57;;
43813;SDS011;29669;55.706;37.656;2023-08-08T13:52:53;11.13;;;7.50;;
43813;SDS011;29669;55.706;37.656;2023-08-08T13:55:21;13.15;;;7.95;;
43813;SDS011;29669;55.706;37.656;2023-08-08T13:57:49;11.65;;;7.15;;
43813;SDS011;29669;55.706;37.656;2023-08-08T14:00:16;18.15;;;8.43;;
43813;SDS011;29669;55.706;37.656;2023-08-08T14:02:44;15.85;;;8.18;;
43813;SDS011;29669;55.706;37.656;2023-08-08T14:05:12;11.68;;;7.53;;
43813;SDS011;29669;55.706;37.656;2023-08-08T14:07:42;12.50;;;8.48;;
43813;SDS011;29669;55.706;37.656;2023-08-08T14:10:10;24.77;;;15.43;;
43813;SDS011;29669;55.706;37.656;2023-08-08T14:12:37;47.75;;;36.42;;
43813;SDS011;29669;55.706;37.656;2023-08-08T14:15:05;14.55;;;10.43;;
43813;SDS011;29669;55.706;37.656;2023-08-08T14:17:33;19.90;;;8.23;;
43813;SDS011;29669;55.706;37.656;2023-08-08T14:20:01;17.23;;;8.57;;
43813;SDS011;29669;55.706;37.656;2023-08-08T14:22:29;14.55;;;8.98;;
43813;SDS011;29669;55.706;37.656;2023-08-08T14:24:57;15.82;;;8.43;;
43813;SDS011;29669;55.706;37.656;2023-08-08T14:27:25;18.02;;;9.90;;
43813;SDS011;29669;55.706;37.656;2023-08-08T14:29:52;14.48;;;8.70;;
43813;SDS011;29669;55.706;37.656;2023-08-08T14:32:20;12.68;;;9.68;;
43813;SDS011;29669;55.706;37.656;2023-08-08T14:34:48;22.55;;;11.43;;
43813;SDS011;29669;55.706;37.656;2023-08-08T14:37:15;17.40;;;9.38;;
43813;SDS011;29669;55.706;37.656;2023-08-08T14:39:43;21.33;;;8.75;;
43813;SDS011;29669;55.706;37.656;2023-08-08T14:42:10;17.65;;;9.55;;
43813;SDS011;29669;55.706;37.656;2023-08-08T14:44:38;14.82;;;8.98;;
43813;SDS011;29669;55.706;37.656;2023-08-08T14:47:05;13.02;;;8.80;;
43813;SDS011;29669;55.706;37.656;2023-08-08T14:49:33;20.95;;;9.57;;
43813;SDS011;29669;55.706;37.656;2023-08-08T14:52:00;13.95;;;8.80;;
43813;SDS011;29669;55.706;37.656;2023-08-08T14:54:28;13.00;;;8.38;;
43813;SDS011;29669;55.706;37.656;2023-08-08T14:56:56;13.57;;;9.20;;
43813;SDS011;29669;55.706;37.656;2023-08-08T14:59:25;17.35;;;9.20;;
43813;SDS011;29669;55.706;37.656;2023-08-08T15:01:52;11.82;;;8.35;;
43813;SDS011;29669;55.706;37.656;2023-08-08T15:04:20;18.13;;;9.07;;
43813;SDS011;29669;55.706;37.656;2023-08-08T15:06:47;22.00;;;9.07;;
43813;SDS011;29669;55.706;37.656;2023-08-08T15:09:15;11.48;;;8.70;;
43813;SDS011;29669;55.706;37.656;2023-08-08T15:11:42;18.33;;;10.10;;
43813;SDS011;29669;55.706;37.656;2023-08-08T15:14:10;23.02;;;10.32;;
43813;SDS011;29669;55.706;37.656;2023-08-08T15:16:39;18.25;;;10.27;;
43813;SDS011;29669;55.706;37.656;2023-08-08T15:19:07;19.42;;;10.57;;
43813;SDS011;29669;55.706;37.656;2023-08-08T15:21:38;17.80;;;10.60;;
43813;SDS011;29669;55.706;37.656;2023-08-08T15:24:05;14.98;;;9.60;;
43813;SDS011;29669;55.706;37.656;2023-08-08T15:26:33;24.63;;;11.07;;
43813;SDS011;29669;55.706;37.656;2023-08-08T15:29:01;18.10;;;10.73;;
43813;SDS011;29669;55.706;37.656;2023-08-08T15:31:29;13.65;;;8.63;;
43813;SDS011;29669;55.706;37.656;2023-08-08T15:33:56;10.02;;;6.85;;
43813;SDS011;29669;55.706;37.656;2023-08-08T15:36:25;9.38;;;6.45;;
43813;SDS011;29669;55.706;37.656;2023-08-08T15:38:53;12.10;;;6.82;;
43813;SDS011;29669;55.706;37.656;2023-08-08T15:41:23;9.65;;;7.13;;
43813;SDS011;29669;55.706;37.656;2023-08-08T15:43:51;8.38;;;6.60;;
43813;SDS011;29669;55.706;37.656;2023-08-08T15:46:18;9.10;;;6.05;;
43813;SDS011;29669;55.706;37.656;2023-08-08T15:48:46;7.25;;;5.32;;
43813;SDS011;29669;55.706;37.656;2023-08-08T15:51:18;6.18;;;5.25;;
43813;SDS011;29669;55.706;37.656;2023-08-08T15:53:45;14.32;;;5.43;;
43813;SDS011;29669;55.706;37.656;2023-08-08T15:56:13;8.38;;;5.18;;
43813;SDS011;29669;55.706;37.656;2023-08-08T15:58:41;7.10;;;5.78;;
43813;SDS011;29669;55.706;37.656;2023-08-08T16:01:09;8.95;;;5.30;;
43813;SDS011;29669;55.706;37.656;2023-08-08T16:03:37;6.00;;;5.10;;
43813;SDS011;29669;55.706;37.656;2023-08-08T16:06:04;7.32;;;4.75;;
43813;SDS011;29669;55.706;37.656;2023-08-08T16:08:32;6.78;;;5.15;;
43813;SDS011;29669;55.706;37.656;2023-08-08T16:11:00;6.63;;;4.82;;
43813;SDS011;29669;55.706;37.656;2023-08-08T16:13:27;10.93;;;4.70;;
43813;SDS011;29669;55.706;37.656;2023-08-08T16:15:55;7.88;;;4.03;;
43813;SDS011;29669;55.706;37.656;2023-08-08T16:18:23;5.13;;;3.67;;
43813;SDS011;29669;55.706;37.656;2023-08-08T16:20:50;4.13;;;3.55;;
43813;SDS011;29669;55.706;37.656;2023-08-08T16:23:18;6.75;;;4.10;;
43813;SDS011;29669;55.706;37.656;2023-08-08T16:25:45;3.65;;;3.35;;
43813;SDS011;29669;55.706;37.656;2023-08-08T16:28:13;4.95;;;3.58;;
43813;SDS011;29669;55.706;37.656;2023-08-08T16:30:41;7.82;;;3.30;;
43813;SDS011;29669;55.706;37.656;2023-08-08T16:33:09;5.35;;;3.72;;
43813;SDS011;29669;55.706;37.656;2023-08-08T16:35:42;6.57;;;3.42;;
43813;SDS011;29669;55.706;37.656;2023-08-08T16:38:11;4.55;;;3.38;;
43813;SDS011;29669;55.706;37.656;2023-08-08T16:40:39;6.13;;;3.22;;
43813;SDS011;29669;55.706;37.656;2023-08-08T16:43:07;4.07;;;3.55;;
43813;SDS011;29669;55.706;37.656;2023-08-08T16:45:34;12.02;;;3.40;;
43813;SDS011;29669;55.706;37.656;2023-08-08T16:48:02;9.70;;;3.13;;
43813;SDS011;29669;55.706;37.656;2023-08-08T16:50:30;3.45;;;3.00;;
43813;SDS011;29669;55.706;37.656;2023-08-08T16:52:58;3.65;;;2.85;;
43813;SDS011;29669;55.706;37.656;2023-08-08T16:55:25;4.88;;;3.15;;
43813;SDS011;29669;55.706;37.656;2023-08-08T16:57:53;4.70;;;3.20;;
43813;SDS011;29669;55.706;37.656;2023-08-08T17:00:20;4.13;;;3.20;;
43813;SDS011;29669;55.706;37.656;2023-08-08T17:02:48;3.25;;;2.95;;
43813;SDS011;29669;55.706;37.656;2023-08-08T17:05:16;4.53;;;3.08;;
43813;SDS011;29669;55.706;37.656;2023-08-08T17:07:43;8.05;;;3.15;;
43813;SDS011;29669;55.706;37.656;2023-08-08T17:10:11;8.57;;;3.15;;
43813;SDS011;29669;55.706;37.656;2023-08-08T17:12:39;4.40;;;2.83;;
43813;SDS011;29669;55.706;37.656;2023-08-08T17:15:07;4.53;;;3.13;;
43813;SDS011;29669;55.706;37.656;2023-08-08T17:17:35;3.40;;;3.05;;
43813;SDS011;29669;55.706;37.656;2023-08-08T17:20:02;9.40;;;3.10;;
43813;SDS011;29669;55.706;37.656;2023-08-08T17:22:35;3.63;;;2.80;;
43813;SDS011;29669;55.706;37.656;2023-08-08T17:25:03;3.70;;;3.13;;
43813;SDS011;29669;55.706;37.656;2023-08-08T17:27:31;4.85;;;2.90;;
43813;SDS011;29669;55.706;37.656;2023-08-08T17:30:03;6.50;;;3.20;;
43813;SDS011;29669;55.706;37.656;2023-08-08T17:32:36;7.15;;;3.20;;
43813;SDS011;29669;55.706;37.656;2023-08-08T17:35:33;3.80;;;2.95;;
43813;SDS011;29669;55.706;37.656;2023-08-08T17:38:34;5.88;;;3.42;;
43813;SDS011;29669;55.706;37.656;2023-08-08T17:41:33;5.10;;;3.30;;
43813;SDS011;29669;55.706;37.656;2023-08-08T17:44:48;4.28;;;2.90;;
43813;SDS011;29669;55.706;37.656;2023-08-08T17:47:53;3.30;;;2.95;;
43813;SDS011;29669;55.706;37.656;2023-08-08T17:50:45;6.13;;;3.28;;
43813;SDS011;29669;55.706;37.656;2023-08-08T17:53:23;4.32;;;2.95;;
43813;SDS011;29669;55.706;37.656;2023-08-08T17:56:03;9.02;;;3.20;;
43813;SDS011;29669;55.706;37.656;2023-08-08T17:58:43;5.95;;;3.00;;
43813;SDS011;29669;55.706;37.656;2023-08-08T18:01:17;4.88;;;3.10;;
43813;SDS011;29669;55.706;37.656;2023-08-08T18:03:55;5.45;;;2.85;;
43813;SDS011;29669;55.706;37.656;2023-08-08T18:06:34;4.38;;;3.00;;
43813;SDS011;29669;55.706;37.656;2023-08-08T18:09:04;7.78;;;3.40;;
43813;SDS011;29669;55.706;37.656;2023-08-08T18:11:42;8.48;;;2.78;;
43813;SDS011;29669;55.706;37.656;2023-08-08T18:14:12;3.67;;;2.75;;
43813;SDS011;29669;55.706;37.656;2023-08-08T18:16:44;6.75;;;3.10;;
43813;SDS011;29669;55.706;37.656;2023-08-08T18:19:23;6.68;;;3.00;;
43813;SDS011;29669;55.706;37.656;2023-08-08T18:21:51;8.77;;;2.80;;
43813;SDS011;29669;55.706;37.656;2023-08-08T18:24:35;6.53;;;3.28;;
43813;SDS011;29669;55.706;37.656;2023-08-08T18:27:21;6.95;;;2.95;;
43813;SDS011;29669;55.706;37.656;2023-08-08T18:30:04;2.75;;;2.53;;
43813;SDS011;29669;55.706;37.656;2023-08-08T18:33:18;5.68;;;3.05;;
43813;SDS011;29669;55.706;37.656;2023-08-08T18:36:14;3.60;;;3.00;;
43813;SDS011;29669;55.706;37.656;2023-08-08T21:04:59;2.50;;;1.65;;
